createdAt,value
2017-09-03T00:00:57.207Z,87.3
2017-09-03T00:01:58.853Z,87.1
2017-09-03T00:03:00.457Z,87.0
2017-09-03T00:04:02.158Z,87.1
2017-09-03T00:05:03.765Z,88.0
2017-09-03T00:06:05.368Z,87.4
2017-09-03T00:07:06.978Z,87.6
2017-09-03T00:08:08.595Z,87.6
2017-09-03T00:09:10.342Z,87.3
2017-09-03T00:10:12.012Z,87.5
2017-09-03T00:11:13.582Z,87.4
2017-09-03T00:12:15.225Z,88.0
2017-09-03T00:13:16.819Z,88.1
2017-09-03T00:14:18.418Z,87.9
2017-09-03T00:15:20.053Z,87.3
2017-09-03T00:16:21.676Z,87.3
2017-09-03T00:17:23.278Z,87.6
2017-09-03T00:18:24.939Z,87.6
2017-09-03T00:19:26.535Z,87.3
2017-09-03T00:20:28.141Z,87.3
2017-09-03T00:21:29.711Z,88.1
2017-09-03T00:22:31.369Z,87.9
2017-09-03T00:23:33.063Z,88.2
2017-09-03T00:24:34.661Z,87.9
2017-09-03T00:25:36.292Z,88.0
2017-09-03T00:26:37.928Z,87.4
2017-09-03T00:27:39.595Z,88.1
2017-09-03T00:28:41.187Z,87.9
2017-09-03T00:29:42.799Z,87.5
2017-09-03T00:30:44.362Z,87.7
2017-09-03T00:31:45.940Z,87.5
2017-09-03T00:32:47.563Z,87.3
2017-09-03T00:33:49.176Z,87.7
2017-09-03T00:34:50.730Z,87.3
2017-09-03T00:35:52.319Z,87.4
2017-09-03T00:36:53.932Z,87.4
2017-09-03T00:37:55.658Z,87.7
2017-09-03T00:38:57.306Z,87.3
2017-09-03T00:39:58.892Z,87.6
2017-09-03T00:41:00.515Z,87.7
2017-09-03T00:42:02.156Z,87.8
2017-09-03T00:43:03.799Z,88.1
2017-09-03T00:44:05.422Z,88.1
2017-09-03T00:45:07.056Z,88.1
2017-09-03T00:46:08.701Z,87.4
2017-09-03T00:47:10.328Z,87.8
2017-09-03T00:48:11.941Z,86.8
2017-09-03T00:49:13.541Z,87.0
2017-09-03T00:50:15.111Z,87.3
2017-09-03T00:51:16.787Z,86.8
2017-09-03T00:52:18.348Z,87.2
2017-09-03T00:53:19.939Z,87.0
2017-09-03T00:54:21.507Z,87.0
2017-09-03T00:55:23.164Z,86.8
2017-09-03T00:56:24.762Z,86.8
2017-09-03T00:57:26.420Z,87.0
2017-09-03T00:58:28.025Z,87.0
2017-09-03T00:59:29.681Z,87.0
2017-09-03T01:00:32.223Z,87.1
2017-09-03T01:01:33.784Z,86.9
2017-09-03T01:02:35.385Z,87.4
2017-09-03T01:03:37.074Z,87.9
2017-09-03T01:04:38.744Z,87.9
2017-09-03T01:05:40.371Z,87.9
2017-09-03T01:06:42.000Z,87.8
2017-09-03T01:07:43.614Z,87.9
2017-09-03T01:08:45.215Z,87.5
2017-09-03T01:09:46.851Z,87.3
2017-09-03T01:10:48.479Z,87.1
2017-09-03T01:11:50.059Z,87.5
2017-09-03T01:12:51.643Z,87.4
2017-09-03T01:13:53.282Z,88.1
2017-09-03T01:14:54.923Z,87.9
2017-09-03T01:15:56.510Z,87.9
2017-09-03T01:16:58.106Z,87.8
2017-09-03T01:17:59.746Z,88.1
2017-09-03T01:19:01.373Z,88.2
2017-09-03T01:20:03.241Z,88.2
2017-09-03T01:21:04.852Z,88.1
2017-09-03T01:22:06.446Z,87.8
2017-09-03T01:23:08.071Z,87.7
2017-09-03T01:24:09.716Z,87.9
2017-09-03T01:25:11.430Z,88.3
2017-09-03T01:26:13.046Z,88.0
2017-09-03T01:27:14.684Z,88.0
2017-09-03T01:28:16.307Z,88.3
2017-09-03T01:29:17.965Z,88.2
2017-09-03T01:30:19.626Z,88.3
2017-09-03T01:31:21.239Z,87.7
2017-09-03T01:32:22.866Z,87.7
2017-09-03T01:33:24.564Z,87.9
2017-09-03T01:34:26.178Z,88.1
2017-09-03T01:35:27.808Z,88.3
2017-09-03T01:36:29.460Z,88.1
2017-09-03T01:37:31.059Z,88.3
2017-09-03T01:38:32.709Z,88.1
2017-09-03T01:39:34.261Z,88.2
2017-09-03T01:40:35.885Z,88.4
2017-09-03T01:41:37.559Z,88.3
2017-09-03T01:42:39.144Z,88.1
2017-09-03T01:43:40.751Z,88.4
2017-09-03T01:44:42.370Z,88.3
2017-09-03T01:45:44.027Z,88.4
2017-09-03T01:46:45.659Z,88.3
2017-09-03T01:47:47.286Z,88.4
2017-09-03T01:48:48.911Z,88.9
2017-09-03T01:49:50.530Z,88.4
2017-09-03T01:50:52.112Z,88.9
2017-09-03T01:51:53.745Z,88.5
2017-09-03T01:52:55.350Z,88.7
2017-09-03T01:53:56.996Z,88.3
2017-09-03T01:54:58.621Z,88.0
2017-09-03T01:56:00.258Z,88.0
2017-09-03T01:57:01.914Z,88.3
2017-09-03T01:58:03.578Z,88.6
2017-09-03T01:59:05.246Z,88.1
2017-09-03T02:00:06.926Z,87.9
2017-09-03T02:01:08.520Z,88.0
2017-09-03T02:02:10.145Z,87.7
2017-09-03T02:03:11.764Z,87.3
2017-09-03T02:04:13.411Z,87.6
2017-09-03T02:05:15.030Z,87.9
2017-09-03T02:06:16.649Z,87.3
2017-09-03T02:07:18.254Z,87.3
2017-09-03T02:08:19.849Z,87.5
2017-09-03T02:09:21.459Z,87.9
2017-09-03T02:10:23.125Z,87.5
2017-09-03T02:11:24.777Z,87.6
2017-09-03T02:12:26.355Z,87.4
2017-09-03T02:13:28.022Z,87.6
2017-09-03T02:14:29.629Z,87.7
2017-09-03T02:15:31.243Z,87.3
2017-09-03T02:16:32.830Z,87.5
2017-09-03T02:17:34.456Z,87.1
2017-09-03T02:18:36.079Z,87.5
2017-09-03T02:19:37.721Z,87.1
2017-09-03T02:20:39.454Z,87.1
2017-09-03T02:21:41.033Z,87.3
2017-09-03T02:22:42.768Z,87.6
2017-09-03T02:23:44.397Z,87.3
2017-09-03T02:24:46.088Z,87.8
2017-09-03T02:25:47.649Z,87.7
2017-09-03T02:26:49.312Z,87.1
2017-09-03T02:27:51.040Z,87.6
2017-09-03T02:28:52.628Z,87.3
2017-09-03T02:29:54.226Z,87.8
2017-09-03T02:30:55.790Z,87.9
2017-09-03T02:31:57.319Z,87.9
2017-09-03T02:32:59.015Z,87.2
2017-09-03T02:34:00.635Z,87.2
2017-09-03T02:35:02.228Z,87.2
2017-09-03T02:36:03.831Z,87.2
2017-09-03T02:37:05.443Z,87.2
2017-09-03T02:38:07.124Z,87.8
2017-09-03T02:39:08.744Z,87.4
2017-09-03T02:40:10.338Z,87.6
2017-09-03T02:41:11.979Z,87.1
2017-09-03T02:42:13.591Z,87.1
2017-09-03T02:43:15.224Z,86.9
2017-09-03T02:44:16.844Z,86.5
2017-09-03T02:45:18.439Z,87.0
2017-09-03T02:46:20.056Z,86.1
2017-09-03T02:47:21.680Z,86.3
2017-09-03T02:48:23.300Z,86.6
2017-09-03T02:49:24.953Z,86.3
2017-09-03T02:50:26.566Z,86.3
2017-09-03T02:51:28.197Z,86.2
2017-09-03T02:52:29.825Z,86.2
2017-09-03T02:53:31.445Z,85.9
2017-09-03T02:54:33.128Z,86.0
2017-09-03T02:55:34.761Z,85.6
2017-09-03T02:56:36.366Z,85.7
2017-09-03T02:57:38.061Z,86.1
2017-09-03T02:58:39.699Z,86.5
2017-09-03T02:59:41.454Z,86.6
2017-09-03T03:00:43.096Z,86.7
2017-09-03T03:01:44.747Z,86.3
2017-09-03T03:02:46.412Z,86.9
2017-09-03T03:03:48.000Z,86.8
2017-09-03T03:04:49.643Z,86.3
2017-09-03T03:05:51.264Z,86.2
2017-09-03T03:06:52.935Z,86.4
2017-09-03T03:07:54.659Z,86.8
2017-09-03T03:08:56.262Z,87.0
2017-09-03T03:09:57.855Z,86.8
2017-09-03T03:10:59.483Z,86.2
2017-09-03T03:12:01.066Z,87.1
2017-09-03T03:13:02.759Z,87.0
2017-09-03T03:14:04.439Z,86.9
2017-09-03T03:15:06.129Z,86.9
2017-09-03T03:16:07.731Z,86.8
2017-09-03T03:17:09.327Z,87.1
2017-09-03T03:18:10.966Z,87.2
2017-09-03T03:19:12.614Z,87.0
2017-09-03T03:20:14.382Z,87.2
2017-09-03T03:21:15.965Z,86.9
2017-09-03T03:22:17.579Z,86.9
2017-09-03T03:23:19.192Z,87.0
2017-09-03T03:24:20.802Z,86.7
2017-09-03T03:25:22.430Z,86.9
2017-09-03T03:26:24.098Z,87.2
2017-09-03T03:27:25.735Z,86.7
2017-09-03T03:28:27.393Z,86.6
2017-09-03T03:29:29.030Z,87.0
2017-09-03T03:30:30.725Z,86.5
2017-09-03T03:31:32.340Z,86.6
2017-09-03T03:32:34.834Z,86.7
2017-09-03T03:33:36.420Z,86.8
2017-09-03T03:34:38.029Z,86.8
2017-09-03T03:35:39.707Z,86.7
2017-09-03T03:36:41.395Z,86.4
2017-09-03T03:37:43.095Z,87.0
2017-09-03T03:38:44.718Z,86.6
2017-09-03T03:39:46.306Z,86.3
2017-09-03T03:40:47.923Z,86.4
2017-09-03T03:41:49.556Z,86.5
2017-09-03T03:42:51.248Z,86.3
2017-09-03T03:43:52.968Z,86.2
2017-09-03T03:44:54.625Z,86.3
2017-09-03T03:45:56.224Z,86.8
2017-09-03T03:46:57.883Z,86.8
2017-09-03T03:47:59.527Z,86.8
2017-09-03T03:49:01.110Z,86.9
2017-09-03T03:50:02.720Z,86.0
2017-09-03T03:51:05.231Z,86.2
2017-09-03T03:52:06.847Z,86.3
2017-09-03T03:53:08.482Z,86.1
2017-09-03T03:54:10.077Z,86.7
2017-09-03T03:55:11.788Z,86.2
2017-09-03T03:56:13.412Z,86.4
2017-09-03T03:57:15.077Z,86.9
2017-09-03T03:58:16.661Z,86.9
2017-09-03T03:59:18.325Z,86.9
2017-09-03T04:00:19.914Z,87.1
2017-09-03T04:01:21.492Z,86.6
2017-09-03T04:02:23.076Z,86.6
2017-09-03T04:03:24.745Z,86.8
2017-09-03T04:04:26.383Z,86.7
2017-09-03T04:05:27.982Z,86.3
2017-09-03T04:06:29.592Z,86.3
2017-09-03T04:07:31.233Z,86.2
2017-09-03T04:08:32.858Z,86.2
2017-09-03T04:09:35.235Z,86.9
2017-09-03T04:10:36.866Z,86.8
2017-09-03T04:11:38.522Z,86.5
2017-09-03T04:12:40.204Z,86.3
2017-09-03T04:13:41.799Z,86.4
2017-09-03T04:14:43.450Z,86.8
2017-09-03T04:15:45.105Z,86.5
2017-09-03T04:16:46.710Z,86.8
2017-09-03T04:17:48.367Z,86.2
2017-09-03T04:18:50.039Z,86.3
2017-09-03T04:19:51.661Z,86.5
2017-09-03T04:20:53.283Z,86.2
2017-09-03T04:21:54.858Z,86.4
2017-09-03T04:22:56.454Z,86.0
2017-09-03T04:23:58.097Z,86.3
2017-09-03T04:24:59.698Z,86.3
2017-09-03T04:26:01.287Z,86.1
2017-09-03T04:27:02.896Z,86.0
2017-09-03T04:28:04.511Z,86.2
2017-09-03T04:29:06.154Z,86.3
2017-09-03T04:30:07.786Z,86.3
2017-09-03T04:31:09.421Z,86.9
2017-09-03T04:32:11.018Z,86.8
2017-09-03T04:33:12.668Z,87.0
2017-09-03T04:34:14.298Z,87.1
2017-09-03T04:35:15.920Z,86.5
2017-09-03T04:36:17.535Z,87.1
2017-09-03T04:37:19.200Z,86.7
2017-09-03T04:38:20.766Z,86.4
2017-09-03T04:39:22.384Z,87.0
2017-09-03T04:40:24.010Z,86.4
2017-09-03T04:41:25.648Z,86.3
2017-09-03T04:42:27.228Z,86.9
2017-09-03T04:43:28.820Z,86.5
2017-09-03T04:44:30.453Z,86.9
2017-09-03T04:45:32.073Z,86.2
2017-09-03T04:46:33.642Z,86.5
2017-09-03T04:47:35.288Z,86.1
2017-09-03T04:48:36.923Z,86.5
2017-09-03T04:49:38.489Z,86.3
2017-09-03T04:50:40.127Z,86.4
2017-09-03T04:51:41.739Z,86.4
2017-09-03T04:52:43.361Z,86.6
2017-09-03T04:53:45.835Z,85.7
2017-09-03T04:54:47.490Z,85.9
2017-09-03T04:55:49.031Z,85.8
2017-09-03T04:56:50.635Z,85.6
2017-09-03T04:57:52.298Z,85.2
2017-09-03T04:58:53.899Z,85.5
2017-09-03T04:59:55.536Z,85.4
2017-09-03T05:00:57.170Z,85.7
2017-09-03T05:01:58.762Z,85.4
2017-09-03T05:03:00.512Z,86.0
2017-09-03T05:04:02.100Z,86.0
2017-09-03T05:05:03.704Z,86.0
2017-09-03T05:06:05.533Z,85.8
2017-09-03T05:07:07.147Z,85.9
2017-09-03T05:08:09.357Z,85.9
2017-09-03T05:09:10.975Z,85.6
2017-09-03T05:10:12.580Z,85.3
2017-09-03T05:11:14.281Z,85.6
2017-09-03T05:12:15.957Z,85.6
2017-09-03T05:13:17.551Z,85.4
2017-09-03T05:14:19.129Z,85.3
2017-09-03T05:15:20.821Z,85.9
2017-09-03T05:16:22.474Z,85.9
2017-09-03T05:17:24.172Z,85.9
2017-09-03T05:18:25.786Z,85.8
2017-09-03T05:19:27.414Z,85.8
2017-09-03T05:20:29.111Z,85.8
2017-09-03T05:21:31.085Z,86.1
2017-09-03T05:22:32.713Z,85.7
2017-09-03T05:23:34.384Z,86.1
2017-09-03T05:24:36.032Z,85.8
2017-09-03T05:25:37.702Z,86.0
2017-09-03T05:26:39.364Z,85.9
2017-09-03T05:27:40.991Z,85.6
2017-09-03T05:28:42.696Z,86.1
2017-09-03T05:29:44.327Z,85.7
2017-09-03T05:30:45.962Z,86.0
2017-09-03T05:31:47.537Z,85.6
2017-09-03T05:32:49.183Z,85.9
2017-09-03T05:33:51.236Z,86.7
2017-09-03T05:34:52.917Z,86.5
2017-09-03T05:35:55.123Z,85.6
2017-09-03T05:36:56.874Z,85.8
2017-09-03T05:37:58.622Z,85.6
2017-09-03T05:39:00.337Z,86.0
2017-09-03T05:40:02.024Z,85.9
2017-09-03T05:41:03.726Z,86.1
2017-09-03T05:42:05.535Z,85.9
2017-09-03T05:43:07.211Z,85.8
2017-09-03T05:44:08.905Z,85.8
2017-09-03T05:45:10.631Z,85.7
2017-09-03T05:46:12.356Z,86.2
2017-09-03T05:47:14.050Z,85.7
2017-09-03T05:48:15.729Z,85.6
2017-09-03T05:49:17.454Z,85.7
2017-09-03T05:50:19.180Z,85.9
2017-09-03T05:51:20.904Z,85.6
2017-09-03T05:52:22.582Z,85.9
2017-09-03T05:53:24.256Z,85.9
2017-09-03T05:54:26.897Z,86.5
2017-09-03T05:55:28.653Z,86.5
2017-09-03T05:56:30.351Z,86.3
2017-09-03T05:57:32.042Z,86.9
2017-09-03T05:58:33.684Z,87.0
2017-09-03T05:59:35.385Z,86.9
2017-09-03T06:00:37.069Z,87.2
2017-09-03T06:01:38.783Z,87.1
2017-09-03T06:02:40.473Z,87.0
2017-09-03T06:03:42.173Z,86.9
2017-09-03T06:04:43.864Z,87.5
2017-09-03T06:05:45.572Z,87.4
2017-09-03T06:06:47.270Z,87.8
2017-09-03T06:07:48.926Z,87.6
2017-09-03T06:08:50.613Z,87.6
2017-09-03T06:09:52.317Z,87.7
2017-09-03T06:10:53.979Z,87.7
2017-09-03T06:11:55.660Z,88.0
2017-09-03T06:12:57.377Z,87.7
2017-09-03T06:13:59.078Z,87.7
2017-09-03T06:15:00.672Z,87.8
2017-09-03T06:16:02.133Z,87.8
2017-09-03T06:17:03.888Z,88.4
2017-09-03T06:18:05.548Z,88.1
2017-09-03T06:19:07.111Z,88.2
2017-09-03T06:20:08.775Z,88.1
2017-09-03T06:21:10.500Z,87.7
2017-09-03T06:22:12.301Z,88.2
2017-09-03T06:23:14.027Z,88.2
2017-09-03T06:24:15.759Z,88.1
2017-09-03T06:25:17.449Z,88.4
2017-09-03T06:26:19.156Z,88.1
2017-09-03T06:27:20.790Z,88.4
2017-09-03T06:28:22.466Z,88.5
2017-09-03T06:29:24.209Z,88.2
2017-09-03T06:30:25.883Z,88.4
2017-09-03T06:31:27.538Z,88.5
2017-09-03T06:32:29.173Z,88.1
2017-09-03T06:33:30.807Z,88.4
2017-09-03T06:34:32.477Z,88.3
2017-09-03T06:35:33.977Z,88.4
2017-09-03T06:36:35.559Z,88.1
2017-09-03T06:37:37.194Z,88.3
2017-09-03T06:38:38.681Z,88.4
2017-09-03T06:39:40.398Z,88.5
2017-09-03T06:40:41.903Z,88.3
2017-09-03T06:41:43.762Z,88.5
2017-09-03T06:42:45.456Z,88.7
2017-09-03T06:43:47.120Z,88.4
2017-09-03T06:44:48.621Z,88.2
2017-09-03T06:45:50.323Z,88.4
2017-09-03T06:46:51.773Z,88.4
2017-09-03T06:47:53.273Z,88.5
2017-09-03T06:48:54.966Z,88.3
2017-09-03T06:49:56.715Z,88.2
2017-09-03T06:50:58.269Z,88.0
2017-09-03T06:51:59.723Z,87.8
2017-09-03T06:53:01.511Z,88.4
2017-09-03T06:54:03.097Z,88.2
2017-09-03T06:55:04.633Z,88.1
2017-09-03T06:56:06.284Z,87.9
2017-09-03T06:57:07.998Z,88.3
2017-09-03T06:58:09.610Z,88.2
2017-09-03T06:59:11.278Z,88.1
2017-09-03T07:00:13.087Z,87.8
2017-09-03T07:01:14.755Z,87.8
2017-09-03T07:02:16.369Z,87.8
2017-09-03T07:03:17.984Z,88.2
2017-09-03T07:04:19.607Z,88.0
2017-09-03T07:05:21.146Z,87.9
2017-09-03T07:06:22.801Z,87.8
2017-09-03T07:07:25.176Z,87.9
2017-09-03T07:08:26.670Z,88.0
2017-09-03T07:09:28.179Z,88.0
2017-09-03T07:10:29.630Z,88.0
2017-09-03T07:11:31.077Z,88.1
2017-09-03T07:12:32.545Z,88.2
2017-09-03T07:13:34.015Z,87.8
2017-09-03T07:14:35.510Z,88.5
2017-09-03T07:15:37.046Z,88.3
2017-09-03T07:16:38.567Z,88.3
2017-09-03T07:17:40.142Z,88.3
2017-09-03T07:18:41.630Z,88.3
2017-09-03T07:19:43.114Z,88.2
2017-09-03T07:20:44.603Z,88.3
2017-09-03T07:21:46.171Z,88.2
2017-09-03T07:22:47.649Z,88.3
2017-09-03T07:23:49.149Z,87.8
2017-09-03T07:24:50.677Z,87.9
2017-09-03T07:25:52.182Z,87.8
2017-09-03T07:26:53.661Z,88.5
2017-09-03T07:27:55.186Z,87.8
2017-09-03T07:28:56.635Z,88.3
2017-09-03T07:29:58.126Z,88.1
2017-09-03T07:30:59.644Z,87.7
2017-09-03T07:32:01.133Z,87.4
2017-09-03T07:33:02.618Z,87.6
2017-09-03T07:34:04.150Z,87.4
2017-09-03T07:35:05.604Z,87.4
2017-09-03T07:36:07.089Z,87.8
2017-09-03T07:37:08.550Z,87.4
2017-09-03T07:38:10.027Z,87.7
2017-09-03T07:39:11.479Z,87.9
2017-09-03T07:40:12.933Z,87.7
2017-09-03T07:41:14.338Z,87.6
2017-09-03T07:42:15.755Z,87.8
2017-09-03T07:43:17.175Z,87.8
2017-09-03T07:44:18.591Z,87.5
2017-09-03T07:45:20.018Z,87.9
2017-09-03T07:46:21.456Z,87.9
2017-09-03T07:47:22.877Z,87.5
2017-09-03T07:48:24.314Z,87.5
2017-09-03T07:49:25.763Z,87.8
2017-09-03T07:50:27.180Z,87.8
2017-09-03T07:51:28.600Z,87.3
2017-09-03T07:52:30.010Z,87.5
2017-09-03T07:53:31.418Z,87.7
2017-09-03T07:54:32.847Z,87.8
2017-09-03T07:55:34.290Z,87.8
2017-09-03T07:56:35.756Z,87.7
2017-09-03T07:57:37.172Z,87.7
2017-09-03T07:58:38.605Z,87.9
2017-09-03T07:59:40.028Z,87.8
2017-09-03T08:00:41.472Z,87.9
2017-09-03T08:01:42.920Z,88.2
2017-09-03T08:02:44.366Z,87.7
2017-09-03T08:03:45.804Z,88.1
2017-09-03T08:04:47.227Z,87.7
2017-09-03T08:05:48.662Z,87.7
2017-09-03T08:06:50.328Z,87.7
2017-09-03T08:07:51.771Z,87.7
2017-09-03T08:08:53.224Z,87.7
2017-09-03T08:09:54.636Z,87.1
2017-09-03T08:10:56.061Z,87.3
2017-09-03T08:11:57.535Z,87.4
2017-09-03T08:12:58.972Z,87.1
2017-09-03T08:14:00.429Z,87.1
2017-09-03T08:15:01.866Z,86.6
2017-09-03T08:16:03.316Z,86.7
2017-09-03T08:17:05.724Z,86.2
2017-09-03T08:18:07.210Z,86.1
2017-09-03T08:19:08.664Z,86.4
2017-09-03T08:20:10.163Z,86.0
2017-09-03T08:21:11.655Z,86.0
2017-09-03T08:22:13.125Z,86.1
2017-09-03T08:23:14.631Z,86.4
2017-09-03T08:24:16.071Z,85.9
2017-09-03T08:25:17.500Z,85.9
2017-09-03T08:26:18.912Z,85.7
2017-09-03T08:27:20.323Z,85.8
2017-09-03T08:28:21.738Z,85.6
2017-09-03T08:29:23.148Z,85.4
2017-09-03T08:30:24.553Z,85.5
2017-09-03T08:31:25.956Z,85.1
2017-09-03T08:32:27.355Z,85.3
2017-09-03T08:33:28.772Z,85.4
2017-09-03T08:34:30.174Z,85.3
2017-09-03T08:35:31.581Z,85.3
2017-09-03T08:36:32.987Z,85.1
2017-09-03T08:37:34.396Z,84.8
2017-09-03T08:38:35.804Z,84.8
2017-09-03T08:39:37.210Z,84.1
2017-09-03T08:40:38.611Z,84.2
2017-09-03T08:41:40.018Z,84.3
2017-09-03T08:42:41.444Z,83.6
2017-09-03T08:43:42.848Z,83.7
2017-09-03T08:44:44.259Z,83.4
2017-09-03T08:45:45.662Z,83.7
2017-09-03T08:46:47.617Z,83.1
2017-09-03T08:47:49.606Z,82.8
2017-09-03T08:48:51.638Z,83.3
2017-09-03T08:49:53.635Z,83.3
2017-09-03T08:50:55.182Z,82.3
2017-09-03T08:51:56.589Z,82.3
2017-09-03T08:52:57.999Z,82.2
2017-09-03T08:53:59.411Z,82.2
2017-09-03T08:55:00.848Z,81.9
2017-09-03T08:56:02.254Z,81.8
2017-09-03T08:57:03.661Z,80.1
2017-09-03T08:58:05.072Z,80.2
2017-09-03T08:59:06.481Z,79.8
2017-09-03T09:00:07.887Z,79.9
2017-09-03T09:01:09.298Z,80.0
2017-09-03T09:02:10.707Z,79.7
2017-09-03T09:03:12.119Z,79.7
2017-09-03T09:04:13.518Z,79.7
2017-09-03T09:05:14.926Z,80.3
2017-09-03T09:06:16.326Z,79.9
2017-09-03T09:07:17.753Z,79.7
2017-09-03T09:08:19.144Z,79.0
2017-09-03T09:09:20.555Z,79.0
2017-09-03T09:10:21.977Z,79.2
2017-09-03T09:11:23.386Z,78.5
2017-09-03T09:12:24.791Z,78.4
2017-09-03T09:13:26.196Z,78.1
2017-09-03T09:14:27.612Z,78.7
2017-09-03T09:15:29.023Z,78.5
2017-09-03T09:16:30.435Z,78.4
2017-09-03T09:17:31.841Z,78.7
2017-09-03T09:18:33.261Z,79.1
2017-09-03T09:19:34.667Z,77.7
2017-09-03T09:20:36.072Z,77.9
2017-09-03T09:21:37.488Z,77.7
2017-09-03T09:22:38.904Z,77.3
2017-09-03T09:23:40.298Z,77.3
2017-09-03T09:24:41.702Z,77.0
2017-09-03T09:25:43.105Z,77.3
2017-09-03T09:26:44.507Z,77.2
2017-09-03T09:27:45.915Z,76.8
2017-09-03T09:28:47.330Z,76.7
2017-09-03T09:29:48.735Z,76.8
2017-09-03T09:30:50.139Z,76.8
2017-09-03T09:31:51.546Z,76.2
2017-09-03T09:32:52.956Z,76.1
2017-09-03T09:33:54.361Z,75.7
2017-09-03T09:34:55.764Z,75.2
2017-09-03T09:35:57.180Z,75.3
2017-09-03T09:36:58.630Z,74.5
2017-09-03T09:38:00.040Z,74.5
2017-09-03T09:39:01.479Z,74.4
2017-09-03T09:40:02.884Z,74.5
2017-09-03T09:41:04.295Z,74.5
2017-09-03T09:42:05.703Z,74.2
2017-09-03T09:43:07.109Z,74.3
2017-09-03T09:44:08.517Z,74.5
2017-09-03T09:45:09.921Z,74.7
2017-09-03T09:46:11.323Z,73.9
2017-09-03T09:47:12.728Z,74.4
2017-09-03T09:48:14.134Z,73.5
2017-09-03T09:49:15.545Z,73.2
2017-09-03T09:50:16.953Z,72.9
2017-09-03T09:51:18.359Z,72.6
2017-09-03T09:52:19.761Z,72.9
2017-09-03T09:53:21.164Z,72.2
2017-09-03T09:54:22.568Z,72.6
2017-09-03T09:55:23.976Z,72.1
2017-09-03T09:56:25.378Z,72.3
2017-09-03T09:57:26.793Z,72.1
2017-09-03T09:58:28.198Z,72.0
2017-09-03T09:59:29.601Z,72.1
2017-09-03T10:00:31.004Z,72.2
2017-09-03T10:01:32.408Z,72.1
2017-09-03T10:02:33.812Z,72.2
2017-09-03T10:03:35.224Z,72.2
2017-09-03T10:04:36.631Z,72.3
2017-09-03T10:05:38.034Z,71.4
2017-09-03T10:06:39.440Z,71.4
2017-09-03T10:07:40.844Z,71.5
2017-09-03T10:08:42.248Z,72.0
2017-09-03T10:09:43.690Z,71.4
2017-09-03T10:10:45.095Z,70.9
2017-09-03T10:11:46.507Z,71.1
2017-09-03T10:12:47.959Z,71.4
2017-09-03T10:13:49.361Z,70.8
2017-09-03T10:14:51.059Z,70.8
2017-09-03T10:15:55.256Z,70.1
2017-09-03T10:16:56.872Z,69.4
2017-09-03T10:17:58.353Z,69.3
2017-09-03T10:18:59.771Z,69.0
2017-09-03T10:20:01.210Z,69.3
2017-09-03T10:21:02.746Z,69.1
2017-09-03T10:22:04.191Z,68.8
2017-09-03T10:23:05.665Z,68.9
2017-09-03T10:24:07.117Z,68.8
2017-09-03T10:25:08.558Z,68.9
2017-09-03T10:26:10.713Z,68.1
2017-09-03T10:27:12.406Z,68.3
2017-09-03T10:28:13.933Z,68.2
2017-09-03T10:29:15.582Z,68.2
2017-09-03T10:30:17.158Z,68.1
2017-09-03T10:31:18.967Z,67.1
2017-09-03T10:32:20.608Z,67.2
2017-09-03T10:33:22.208Z,66.5
2017-09-03T10:34:23.868Z,66.6
2017-09-03T10:35:25.466Z,66.5
2017-09-03T10:36:26.995Z,67.0
2017-09-03T10:37:28.521Z,67.0
2017-09-03T10:38:30.077Z,66.2
2017-09-03T10:39:31.621Z,66.0
2017-09-03T10:40:33.113Z,66.0
2017-09-03T10:41:34.642Z,66.5
2017-09-03T10:42:36.157Z,66.4
2017-09-03T10:43:37.725Z,66.2
2017-09-03T10:44:39.290Z,65.3
2017-09-03T10:45:40.928Z,65.4
2017-09-03T10:46:42.473Z,65.6
2017-09-03T10:47:44.054Z,65.8
2017-09-03T10:48:45.705Z,65.3
2017-09-03T10:49:47.362Z,65.3
2017-09-03T10:50:48.918Z,65.2
2017-09-03T10:51:50.433Z,65.3
2017-09-03T10:52:51.948Z,64.9
2017-09-03T10:53:53.512Z,63.9
2017-09-03T10:54:55.082Z,63.6
2017-09-03T10:55:56.661Z,63.9
2017-09-03T10:56:58.404Z,63.6
2017-09-03T10:58:00.136Z,63.6
2017-09-03T10:59:01.739Z,63.9
2017-09-03T11:00:03.477Z,63.9
2017-09-03T11:01:05.040Z,63.9
2017-09-03T11:02:06.591Z,64.8
2017-09-03T11:03:08.117Z,64.2
2017-09-03T11:04:09.766Z,63.1
2017-09-03T11:05:11.374Z,63.3
2017-09-03T11:06:12.912Z,63.3
2017-09-03T11:07:14.575Z,62.9
2017-09-03T11:08:16.149Z,62.1
2017-09-03T11:09:17.736Z,61.7
2017-09-03T11:10:19.343Z,61.9
2017-09-03T11:11:20.928Z,61.8
2017-09-03T11:12:22.500Z,62.4
2017-09-03T11:13:24.078Z,62.5
2017-09-03T11:14:25.745Z,63.1
2017-09-03T11:15:27.389Z,63.0
2017-09-03T11:16:29.055Z,63.1
2017-09-03T11:17:30.671Z,62.8
2017-09-03T11:18:32.428Z,63.0
2017-09-03T11:19:34.162Z,62.7
2017-09-03T11:20:35.715Z,62.6
2017-09-03T11:21:37.268Z,62.8
2017-09-03T11:22:38.869Z,62.9
2017-09-03T11:23:40.535Z,62.2
2017-09-03T11:24:42.119Z,62.1
2017-09-03T11:25:43.691Z,61.7
2017-09-03T11:26:45.397Z,61.5
2017-09-03T11:27:48.054Z,61.1
2017-09-03T11:28:49.698Z,61.3
2017-09-03T11:29:51.285Z,61.5
2017-09-03T11:30:52.911Z,61.1
2017-09-03T11:31:54.520Z,60.5
2017-09-03T11:32:56.122Z,60.6
2017-09-03T11:33:57.657Z,60.1
2017-09-03T11:34:59.237Z,60.1
2017-09-03T11:36:00.827Z,60.2
2017-09-03T11:37:02.411Z,60.6
2017-09-03T11:38:04.125Z,60.8
2017-09-03T11:39:05.650Z,60.4
2017-09-03T11:40:07.211Z,61.0
2017-09-03T11:41:08.770Z,60.7
2017-09-03T11:42:10.356Z,60.6
2017-09-03T11:43:11.935Z,60.6
2017-09-03T11:44:13.554Z,60.5
2017-09-03T11:45:15.194Z,60.1
2017-09-03T11:46:16.773Z,60.2
2017-09-03T11:47:18.331Z,60.2
2017-09-03T11:48:19.928Z,60.4
2017-09-03T11:49:21.551Z,60.0
2017-09-03T11:50:23.216Z,59.8
2017-09-03T11:51:24.844Z,59.3
2017-09-03T11:52:26.473Z,59.4
2017-09-03T11:53:28.085Z,59.0
2017-09-03T11:54:29.680Z,58.9
2017-09-03T11:55:31.317Z,59.2
2017-09-03T11:56:32.967Z,59.1
2017-09-03T11:57:34.581Z,58.8
2017-09-03T11:58:36.162Z,58.7
2017-09-03T11:59:37.726Z,58.5
2017-09-03T12:00:39.297Z,58.1
2017-09-03T12:01:40.832Z,58.1
2017-09-03T12:02:42.377Z,58.0
2017-09-03T12:03:43.927Z,57.9
2017-09-03T12:04:45.542Z,56.9
2017-09-03T12:05:47.130Z,56.1
2017-09-03T12:06:48.752Z,56.5
2017-09-03T12:07:50.284Z,56.0
2017-09-03T12:08:51.853Z,55.1
2017-09-03T12:09:53.392Z,55.1
2017-09-03T12:10:54.954Z,54.9
2017-09-03T12:11:56.590Z,54.9
2017-09-03T12:12:58.130Z,55.3
2017-09-03T12:13:59.734Z,55.3
2017-09-03T12:15:01.297Z,55.6
2017-09-03T12:16:02.846Z,55.6
2017-09-03T12:17:04.411Z,55.3
2017-09-03T12:18:06.017Z,55.4
2017-09-03T12:19:07.614Z,55.3
2017-09-03T12:20:09.187Z,55.4
2017-09-03T12:21:10.724Z,55.4
2017-09-03T12:22:12.268Z,55.5
2017-09-03T12:23:13.813Z,56.0
2017-09-03T12:24:15.321Z,55.6
2017-09-03T12:25:16.840Z,56.0
2017-09-03T12:26:18.383Z,55.9
2017-09-03T12:27:19.969Z,55.5
2017-09-03T12:28:21.523Z,55.5
2017-09-03T12:29:23.046Z,55.5
2017-09-03T12:30:24.569Z,55.6
2017-09-03T12:31:26.060Z,56.0
2017-09-03T12:32:27.610Z,54.7
2017-09-03T12:33:29.129Z,54.3
2017-09-03T12:34:30.740Z,54.0
2017-09-03T12:35:32.234Z,53.9
2017-09-03T12:36:34.327Z,54.9
2017-09-03T12:37:35.868Z,55.2
2017-09-03T12:38:37.356Z,55.0
2017-09-03T12:39:38.881Z,55.3
2017-09-03T12:40:40.417Z,55.4
2017-09-03T12:41:41.938Z,55.3
2017-09-03T12:42:43.848Z,55.5
2017-09-03T12:43:45.348Z,55.7
2017-09-03T12:44:46.872Z,55.5
2017-09-03T12:45:48.382Z,56.1
2017-09-03T12:46:49.954Z,56.0
2017-09-03T12:47:51.533Z,55.9
2017-09-03T12:48:53.071Z,55.4
2017-09-03T12:49:54.594Z,55.5
2017-09-03T12:50:56.110Z,55.3
2017-09-03T12:51:57.615Z,55.2
2017-09-03T12:52:59.107Z,55.3
2017-09-03T12:54:00.685Z,55.0
2017-09-03T12:55:02.273Z,55.2
2017-09-03T12:56:03.830Z,55.0
2017-09-03T12:57:05.413Z,54.3
2017-09-03T12:58:06.949Z,53.9
2017-09-03T12:59:08.486Z,54.0
2017-09-03T13:00:10.017Z,53.6
2017-09-03T13:01:11.558Z,54.1
2017-09-03T13:02:13.065Z,53.9
2017-09-03T13:03:14.590Z,53.9
2017-09-03T13:04:16.103Z,53.8
2017-09-03T13:05:17.678Z,53.5
2017-09-03T13:06:19.309Z,53.5
2017-09-03T13:07:20.854Z,53.8
2017-09-03T13:08:22.380Z,54.0
2017-09-03T13:09:23.921Z,54.0
2017-09-03T13:10:25.461Z,54.4
2017-09-03T13:11:26.962Z,54.6
2017-09-03T13:12:28.559Z,54.7
2017-09-03T13:13:30.107Z,54.5
2017-09-03T13:14:31.652Z,54.8
2017-09-03T13:15:33.169Z,54.8
2017-09-03T13:16:34.712Z,54.0
2017-09-03T13:17:36.258Z,53.6
2017-09-03T13:18:37.805Z,52.9
2017-09-03T13:19:39.327Z,53.1
2017-09-03T13:20:40.808Z,52.9
2017-09-03T13:21:42.331Z,52.6
2017-09-03T13:22:43.828Z,53.1
2017-09-03T13:23:45.409Z,52.6
2017-09-03T13:24:47.001Z,52.8
2017-09-03T13:25:48.562Z,52.2
2017-09-03T13:26:50.246Z,51.7
2017-09-03T13:27:51.798Z,51.8
2017-09-03T13:28:53.393Z,51.8
2017-09-03T13:29:57.325Z,51.8
2017-09-03T13:30:58.880Z,51.6
2017-09-03T13:32:00.418Z,51.6
2017-09-03T13:33:01.968Z,51.3
2017-09-03T13:34:03.521Z,51.4
2017-09-03T13:35:05.045Z,51.4
2017-09-03T13:36:06.615Z,51.6
2017-09-03T13:37:08.140Z,51.9
2017-09-03T13:38:09.642Z,51.9
2017-09-03T13:39:11.145Z,52.1
2017-09-03T13:40:12.633Z,52.8